createdAt,value
2023-01-04T00:01:22.836Z,9.75
2023-01-04T00:03:50.962Z,8.60
2023-01-04T00:06:19.516Z,9.73
2023-01-04T00:08:47.565Z,10.93
2023-01-04T00:11:18.830Z,10.73
2023-01-04T00:13:49.327Z,8.57
2023-01-04T00:16:18.619Z,5.80
2023-01-04T00:18:46.782Z,6.90
2023-01-04T00:21:16.272Z,7.15
2023-01-04T00:23:46.008Z,7.27
2023-01-04T00:26:15.687Z,8.00
2023-01-04T00:28:48.347Z,6.32
2023-01-04T00:31:21.191Z,6.13
2023-01-04T00:33:49.161Z,6.47
2023-01-04T00:36:17.103Z,5.40
2023-01-04T00:38:44.912Z,5.90
2023-01-04T00:41:49.120Z,6.40
2023-01-04T00:44:03.564Z,6.25
2023-01-04T00:46:33.681Z,4.97
2023-01-04T00:49:02.069Z,7.20
2023-01-04T00:51:31.237Z,3.47
2023-01-04T00:53:59.662Z,4.03
2023-01-04T00:56:29.094Z,4.03
2023-01-04T00:58:57.456Z,4.38
2023-01-04T01:01:26.287Z,4.13
2023-01-04T01:03:56.894Z,5.60
2023-01-04T01:06:26.067Z,4.10
2023-01-04T01:08:54.507Z,5.65
2023-01-04T01:11:22.967Z,2.88
2023-01-04T01:13:51.420Z,4.20
2023-01-04T01:16:44.377Z,5.30
2023-01-04T01:19:11.594Z,5.22
2023-01-04T01:21:39.477Z,4.07
2023-01-04T01:24:08.006Z,6.07
2023-01-04T01:26:35.850Z,3.60
2023-01-04T01:29:03.654Z,5.00
2023-01-04T01:31:32.167Z,3.85
2023-01-04T01:33:59.994Z,5.40
2023-01-04T01:36:29.253Z,3.97
2023-01-04T01:38:57.191Z,5.40
2023-01-04T01:41:26.988Z,5.28
2023-01-04T01:43:56.724Z,6.28
2023-01-04T01:46:27.862Z,7.93
2023-01-04T01:48:59.815Z,8.27
2023-01-04T01:51:31.393Z,8.03
2023-01-04T01:54:03.986Z,7.35
2023-01-04T01:56:34.989Z,13.40
2023-01-04T01:59:03.543Z,13.52
2023-01-04T02:01:31.437Z,11.23
2023-01-04T02:03:59.824Z,10.97
2023-01-04T02:06:33.802Z,9.80
2023-01-04T02:09:03.280Z,11.02
2023-01-04T02:11:31.138Z,12.88
2023-01-04T02:14:17.556Z,12.25
2023-01-04T02:17:06.599Z,18.80
2023-01-04T02:20:08.205Z,17.10
2023-01-04T02:23:18.527Z,14.23
2023-01-04T02:26:20.083Z,17.98
2023-01-04T02:29:06.507Z,20.20
2023-01-04T02:31:41.228Z,23.97
2023-01-04T02:34:17.568Z,18.17
2023-01-04T02:36:55.103Z,19.05
2023-01-04T02:39:33.428Z,19.33
2023-01-04T02:42:14.078Z,23.70
2023-01-04T02:44:55.742Z,22.40
2023-01-04T02:47:46.326Z,23.42
2023-01-04T02:50:36.012Z,18.85
2023-01-04T02:53:09.294Z,18.05
2023-01-04T02:55:48.180Z,16.92
2023-01-04T02:58:33.743Z,20.60
2023-01-04T03:01:29.284Z,13.20
2023-01-04T03:04:27.531Z,16.80
2023-01-04T03:07:02.888Z,21.17
2023-01-04T03:09:35.112Z,20.80
2023-01-04T03:12:26.202Z,14.83
2023-01-04T03:15:00.528Z,15.65
2023-01-04T03:17:32.679Z,20.45
2023-01-04T03:20:02.392Z,16.70
2023-01-04T03:22:53.269Z,20.00
2023-01-04T03:25:43.683Z,24.50
2023-01-04T03:28:32.096Z,23.80
2023-01-04T03:31:25.309Z,21.17
2023-01-04T03:34:11.360Z,18.00
2023-01-04T03:36:48.321Z,16.63
2023-01-04T03:39:40.861Z,20.73
2023-01-04T03:42:34.190Z,20.02
2023-01-04T03:45:32.973Z,17.27
2023-01-04T03:48:26.329Z,21.27
2023-01-04T03:51:02.249Z,20.02
2023-01-04T03:53:34.346Z,16.53
2023-01-04T03:56:03.174Z,13.57
2023-01-04T03:58:31.070Z,14.75
2023-01-04T04:01:03.404Z,13.15
2023-01-04T04:03:49.484Z,16.05
2023-01-04T04:06:35.596Z,17.67
2023-01-04T04:09:05.373Z,16.52
2023-01-04T04:11:33.186Z,20.02
2023-01-04T04:14:01.329Z,15.20
2023-01-04T04:16:29.644Z,15.55
2023-01-04T04:18:57.574Z,16.90
2023-01-04T04:21:25.421Z,14.93
2023-01-04T04:23:55.751Z,13.98
2023-01-04T04:26:25.421Z,17.17
2023-01-04T04:28:53.276Z,15.48
2023-01-04T04:31:21.108Z,21.70
2023-01-04T04:33:49.019Z,16.63
2023-01-04T04:36:16.806Z,17.10
2023-01-04T04:38:44.569Z,18.20
2023-01-04T04:41:32.502Z,16.65
2023-01-04T04:44:01.684Z,15.17
2023-01-04T04:46:29.749Z,18.98
2023-01-04T04:48:58.294Z,20.50
2023-01-04T04:51:26.254Z,20.70
2023-01-04T04:53:54.177Z,27.35
2023-01-04T04:56:22.232Z,24.87
2023-01-04T04:58:50.543Z,18.02
2023-01-04T05:01:19.895Z,22.13
2023-01-04T05:03:48.045Z,21.38
2023-01-04T05:06:16.007Z,17.92
2023-01-04T05:08:43.863Z,18.83
2023-01-04T05:11:13.213Z,20.55
2023-01-04T05:13:40.234Z,17.30
2023-01-04T05:16:10.134Z,17.90
2023-01-04T05:18:39.350Z,16.70
2023-01-04T05:21:07.074Z,15.30
2023-01-04T05:23:34.824Z,18.88
2023-01-04T05:26:03.748Z,21.15
2023-01-04T05:28:31.546Z,19.10
2023-01-04T05:30:58.349Z,17.90
2023-01-04T05:33:28.329Z,26.50
2023-01-04T05:35:59.072Z,16.40
2023-01-04T05:38:27.576Z,12.10
2023-01-04T05:40:55.477Z,11.68
2023-01-04T05:43:24.437Z,8.35
2023-01-04T05:45:54.607Z,9.30
2023-01-04T05:48:23.642Z,12.23
2023-01-04T05:50:51.967Z,14.75
2023-01-04T05:53:21.155Z,9.65
2023-01-04T05:55:49.880Z,14.18
2023-01-04T05:58:17.698Z,17.50
2023-01-04T06:00:45.585Z,17.45
2023-01-04T06:03:13.524Z,16.40
2023-01-04T06:05:41.862Z,18.17
2023-01-04T06:08:09.594Z,17.98
2023-01-04T06:10:38.769Z,15.50
2023-01-04T06:13:06.590Z,18.73
2023-01-04T06:15:39.380Z,21.23
2023-01-04T06:18:13.510Z,19.67
2023-01-04T06:20:43.400Z,19.33
2023-01-04T06:23:11.301Z,19.13
2023-01-04T06:25:40.575Z,22.05
2023-01-04T06:28:08.332Z,24.63
2023-01-04T06:30:36.268Z,25.00
2023-01-04T06:33:04.118Z,23.80
2023-01-04T06:35:31.997Z,21.80
2023-01-04T06:37:59.864Z,25.95
2023-01-04T06:40:28.560Z,24.30
2023-01-04T06:42:57.764Z,23.98
2023-01-04T06:45:25.626Z,22.40
2023-01-04T06:47:53.435Z,19.77
2023-01-04T06:50:21.254Z,27.75
2023-01-04T06:52:49.083Z,27.10
2023-01-04T06:55:17.222Z,14.90
2023-01-04T06:57:44.959Z,24.30
2023-01-04T07:00:15.801Z,19.33
2023-01-04T07:03:14.144Z,19.08
2023-01-04T07:05:31.522Z,17.05
2023-01-04T07:08:07.647Z,15.77
2023-01-04T07:10:35.760Z,21.98
2023-01-04T07:13:03.576Z,20.80
2023-01-04T07:15:38.130Z,26.15
2023-01-04T07:18:08.114Z,32.10
2023-01-04T07:20:36.005Z,26.92
2023-01-04T07:23:03.929Z,23.65
2023-01-04T07:25:31.671Z,26.10
2023-01-04T07:27:59.537Z,21.42
2023-01-04T07:30:27.300Z,23.20
2023-01-04T07:32:57.550Z,24.00
2023-01-04T07:35:25.671Z,29.13
2023-01-04T07:37:58.281Z,26.77
2023-01-04T07:40:27.284Z,20.70
2023-01-04T07:42:57.172Z,28.38
2023-01-04T07:45:26.249Z,22.05
2023-01-04T07:47:54.405Z,19.23
2023-01-04T07:50:23.719Z,19.77
2023-01-04T07:52:51.568Z,17.80
2023-01-04T07:55:19.362Z,25.13
2023-01-04T07:57:47.149Z,22.48
2023-01-04T08:00:15.888Z,24.02
2023-01-04T08:02:43.927Z,29.23
2023-01-04T08:05:12.005Z,27.98
2023-01-04T08:07:41.207Z,20.05
2023-01-04T08:10:09.876Z,22.23
2023-01-04T08:12:37.726Z,20.15
2023-01-04T08:15:06.462Z,13.70
2023-01-04T08:17:34.321Z,12.50
2023-01-04T08:20:02.463Z,14.85
2023-01-04T08:22:30.181Z,16.15
2023-01-04T08:24:59.425Z,19.27
2023-01-04T08:27:27.318Z,12.70
2023-01-04T08:29:55.197Z,25.58
2023-01-04T08:32:23.377Z,18.85
2023-01-04T08:34:51.261Z,21.70
2023-01-04T08:37:19.016Z,25.50
2023-01-04T08:39:49.224Z,25.63
2023-01-04T08:42:26.563Z,31.48
2023-01-04T08:45:00.891Z,21.83
2023-01-04T08:47:29.067Z,24.70
2023-01-04T08:49:58.033Z,29.58
2023-01-04T08:52:26.231Z,30.83
2023-01-04T08:54:54.422Z,32.58
2023-01-04T08:57:23.712Z,29.17
2023-01-04T08:59:51.589Z,36.22
2023-01-04T09:02:22.805Z,29.65
2023-01-04T09:04:50.822Z,34.60
2023-01-04T09:07:19.270Z,38.53
2023-01-04T09:09:47.178Z,44.60
2023-01-04T09:12:15.009Z,39.88
2023-01-04T09:14:44.263Z,51.72
2023-01-04T09:17:12.105Z,46.13
2023-01-04T09:19:39.932Z,42.35
2023-01-04T09:22:07.801Z,52.53
2023-01-04T09:24:35.725Z,37.78
2023-01-04T09:27:04.613Z,46.60
2023-01-04T09:29:32.734Z,45.33
2023-01-04T09:32:02.107Z,59.17
2023-01-04T09:34:30.112Z,49.45
2023-01-04T09:36:58.111Z,53.95
2023-01-04T09:39:30.399Z,51.50
2023-01-04T09:42:01.343Z,64.97
2023-01-04T09:47:36.591Z,43.08
2023-01-04T09:50:11.714Z,46.83
2023-01-04T09:52:52.650Z,48.03
2023-01-04T09:55:38.383Z,47.67
2023-01-04T09:58:18.330Z,40.67
2023-01-04T10:00:48.261Z,48.38
2023-01-04T10:03:22.816Z,53.50
2023-01-04T10:05:52.244Z,31.02
2023-01-04T10:08:21.079Z,40.03
2023-01-04T10:10:52.966Z,41.38
2023-01-04T10:13:33.516Z,42.75
2023-01-04T10:16:10.304Z,41.00
2023-01-04T10:21:43.713Z,43.57
2023-01-04T10:24:25.371Z,36.80
2023-01-04T10:27:00.462Z,35.80
2023-01-04T10:29:43.830Z,34.22
2023-01-04T10:32:18.589Z,36.03
2023-01-04T10:34:49.156Z,30.53
2023-01-04T10:37:21.106Z,36.25
2023-01-04T10:39:55.134Z,38.28
2023-01-04T10:42:33.367Z,37.00
2023-01-04T10:45:14.572Z,37.40
2023-01-04T10:47:53.887Z,31.57
2023-01-04T10:50:30.268Z,27.83
2023-01-04T10:53:06.167Z,31.90
2023-01-04T10:55:40.666Z,20.23
2023-01-04T10:58:33.580Z,19.52
2023-01-04T11:01:07.009Z,23.43
2023-01-04T11:03:38.682Z,19.95
2023-01-04T11:06:15.673Z,17.63
2023-01-04T11:08:48.383Z,14.50
2023-01-04T11:11:21.833Z,22.40
2023-01-04T11:13:50.525Z,21.73
2023-01-04T11:16:18.613Z,22.48
2023-01-04T11:18:49.605Z,16.70
2023-01-04T11:21:22.770Z,20.40
2023-01-04T11:23:50.672Z,21.70
2023-01-04T11:26:23.253Z,12.77
2023-01-04T11:28:55.273Z,15.05
2023-01-04T11:31:29.251Z,13.48
2023-01-04T11:33:59.016Z,19.65
2023-01-04T11:36:39.655Z,19.13
2023-01-04T11:39:18.205Z,19.67
2023-01-04T11:42:02.369Z,15.20
2023-01-04T11:44:32.509Z,25.63
2023-01-04T11:47:08.403Z,21.50
2023-01-04T11:49:37.554Z,22.85
2023-01-04T11:52:08.507Z,33.20
2023-01-04T11:54:36.576Z,38.90
2023-01-04T11:57:11.724Z,22.52
2023-01-04T11:59:40.512Z,30.40
2023-01-04T12:05:24.249Z,27.50
2023-01-04T12:07:58.274Z,32.90
2023-01-04T12:10:28.292Z,28.65
2023-01-04T12:12:56.724Z,32.33
2023-01-04T12:15:33.406Z,27.67
2023-01-04T12:18:05.602Z,23.93
2023-01-04T12:20:33.441Z,26.38
2023-01-04T12:23:02.675Z,31.60
2023-01-04T12:25:36.153Z,28.15
2023-01-04T12:28:04.079Z,26.90
2023-01-04T12:30:38.988Z,25.70
2023-01-04T12:33:38.783Z,22.50
2023-01-04T12:36:08.162Z,24.58
2023-01-04T12:39:07.311Z,19.92
2023-01-04T12:42:15.719Z,25.45
2023-01-04T12:45:21.299Z,27.83
2023-01-04T12:48:08.442Z,27.65
2023-01-04T12:51:37.400Z,18.88
2023-01-04T12:54:24.545Z,21.63
2023-01-04T12:57:12.579Z,21.45
2023-01-04T12:59:53.444Z,21.93
2023-01-04T13:02:24.477Z,23.08
2023-01-04T13:05:24.177Z,22.95
2023-01-04T13:07:44.961Z,24.20
2023-01-04T13:10:31.718Z,26.33
2023-01-04T13:13:24.666Z,18.93
2023-01-04T13:16:06.814Z,22.95
2023-01-04T13:18:38.452Z,27.38
2023-01-04T13:21:13.909Z,21.85
2023-01-04T13:23:47.726Z,24.85
2023-01-04T13:26:33.909Z,24.50
2023-01-04T13:29:17.099Z,22.10
2023-01-04T13:31:57.115Z,28.10
2023-01-04T13:34:29.787Z,20.40
2023-01-04T13:37:06.454Z,26.58
2023-01-04T13:39:34.749Z,29.43
2023-01-04T13:42:05.084Z,19.08
2023-01-04T13:45:19.781Z,20.30
2023-01-04T13:47:51.951Z,27.58
2023-01-04T13:50:29.562Z,25.45
2023-01-04T13:53:06.791Z,17.33
2023-01-04T13:55:36.701Z,20.67
2023-01-04T13:58:07.266Z,24.17
2023-01-04T14:00:42.612Z,20.95
2023-01-04T14:03:21.428Z,21.30
2023-01-04T14:05:52.028Z,20.10
2023-01-04T14:08:24.042Z,22.50
2023-01-04T14:10:51.946Z,24.65
2023-01-04T14:13:21.667Z,22.02
2023-01-04T14:16:11.768Z,27.45
2023-01-04T14:18:40.155Z,27.07
2023-01-04T14:21:17.377Z,27.60
2023-01-04T14:23:45.918Z,28.92
2023-01-04T14:26:31.624Z,24.27
2023-01-04T14:29:21.006Z,19.83
2023-01-04T14:31:48.971Z,27.70
2023-01-04T14:34:16.848Z,26.05
2023-01-04T14:36:45.345Z,24.60
2023-01-04T14:39:34.981Z,26.48
2023-01-04T14:42:04.043Z,20.45
2023-01-04T14:44:36.012Z,23.20
2023-01-04T14:47:06.306Z,34.35
2023-01-04T14:49:34.396Z,19.20
2023-01-04T14:52:03.784Z,29.85
2023-01-04T14:54:31.792Z,29.02
2023-01-04T14:57:00.327Z,25.07
2023-01-04T14:59:28.739Z,17.80
2023-01-04T15:01:59.100Z,27.65
2023-01-04T15:04:27.002Z,29.55
2023-01-04T15:06:57.097Z,32.53
2023-01-04T15:09:25.330Z,26.17
2023-01-04T15:11:53.185Z,28.23
2023-01-04T15:14:21.232Z,22.30
2023-01-04T15:16:49.104Z,30.02
2023-01-04T15:19:18.291Z,30.88
2023-01-04T15:21:46.335Z,22.57
2023-01-04T15:24:14.233Z,23.17
2023-01-04T15:26:43.417Z,19.95
2023-01-04T15:29:11.337Z,27.65
2023-01-04T15:31:41.531Z,33.72
2023-01-04T15:34:10.765Z,23.70
2023-01-04T15:36:41.120Z,28.02
2023-01-04T15:39:12.378Z,26.85
2023-01-04T15:41:57.692Z,34.70
2023-01-04T15:44:25.756Z,28.58
2023-01-04T15:46:53.869Z,27.37
2023-01-04T15:49:21.830Z,22.85
2023-01-04T15:51:50.954Z,21.30
2023-01-04T15:54:21.509Z,33.97
2023-01-04T15:56:49.452Z,26.45
2023-01-04T15:59:17.338Z,29.63
2023-01-04T16:01:45.323Z,28.40
2023-01-04T16:04:13.281Z,33.63
2023-01-04T16:06:41.671Z,28.05
2023-01-04T16:09:10.971Z,23.05
2023-01-04T16:11:58.959Z,34.57
2023-01-04T16:14:26.768Z,34.38
2023-01-04T16:16:54.507Z,30.52
2023-01-04T16:19:22.394Z,29.77
2023-01-04T16:21:50.147Z,33.88
2023-01-04T16:24:53.152Z,37.73
2023-01-04T16:27:07.128Z,32.85
2023-01-04T16:29:34.920Z,37.28
2023-01-04T16:32:03.092Z,32.40
2023-01-04T16:34:31.004Z,33.90
2023-01-04T16:36:58.867Z,35.30
2023-01-04T16:39:57.272Z,29.90
2023-01-04T16:42:16.338Z,33.22
2023-01-04T16:44:44.158Z,37.60
2023-01-04T16:47:12.110Z,27.25
2023-01-04T16:49:39.907Z,38.23
2023-01-04T16:52:10.522Z,34.75
2023-01-04T16:54:39.752Z,29.05
2023-01-04T16:57:07.530Z,29.98
2023-01-04T16:59:35.407Z,25.35
2023-01-04T17:02:03.444Z,27.00
2023-01-04T17:04:31.358Z,31.30
2023-01-04T17:06:59.119Z,29.67
2023-01-04T17:09:27.057Z,27.38
2023-01-04T17:15:08.010Z,28.17
2023-01-04T17:17:38.574Z,60.33
2023-01-04T17:20:07.757Z,26.23
2023-01-04T17:22:35.733Z,31.33
2023-01-04T17:25:03.656Z,36.20
2023-01-04T17:27:32.820Z,26.33
2023-01-04T17:30:00.990Z,27.33
2023-01-04T17:32:28.802Z,35.33
2023-01-04T17:34:57.536Z,36.05
2023-01-04T17:37:25.433Z,28.70
2023-01-04T17:39:53.311Z,30.83
2023-01-04T17:42:21.414Z,30.25
2023-01-04T17:44:51.302Z,33.28
2023-01-04T17:47:19.253Z,28.42
2023-01-04T17:49:47.081Z,31.15
2023-01-04T17:52:21.011Z,28.63
2023-01-04T17:54:52.431Z,29.45
2023-01-04T17:57:20.287Z,28.13
2023-01-04T17:59:48.155Z,25.02
2023-01-04T18:02:17.426Z,21.85
2023-01-04T18:04:45.318Z,33.07
2023-01-04T18:07:13.315Z,19.48
2023-01-04T18:09:41.402Z,37.72
2023-01-04T18:12:09.299Z,34.85
2023-01-04T18:14:37.129Z,20.48
2023-01-04T18:17:06.160Z,27.07
2023-01-04T18:19:35.605Z,25.17
2023-01-04T18:22:04.137Z,36.97
2023-01-04T18:24:37.201Z,26.38
2023-01-04T18:27:23.889Z,28.27
2023-01-04T18:29:52.895Z,30.70
2023-01-04T18:32:21.057Z,29.05
2023-01-04T18:34:50.328Z,25.80
2023-01-04T18:37:18.578Z,33.17
2023-01-04T18:39:46.720Z,33.28
2023-01-04T18:42:14.647Z,26.83
2023-01-04T18:44:47.902Z,27.02
2023-01-04T18:47:17.004Z,32.67
2023-01-04T18:49:44.932Z,28.25
2023-01-04T18:52:14.213Z,32.70
2023-01-04T18:54:43.039Z,24.20
2023-01-04T18:57:10.929Z,26.90
2023-01-04T18:59:38.864Z,28.40
2023-01-04T19:02:07.001Z,31.20
2023-01-04T19:04:37.061Z,40.50
2023-01-04T19:07:04.850Z,27.27
2023-01-04T19:09:34.040Z,34.08
2023-01-04T19:12:02.103Z,23.48
2023-01-04T19:14:29.904Z,31.92
2023-01-04T19:16:57.783Z,27.25
2023-01-04T19:19:25.791Z,19.87
2023-01-04T19:21:53.729Z,26.88
2023-01-04T19:24:21.745Z,27.65
2023-01-04T19:26:50.945Z,32.45
2023-01-04T19:29:19.281Z,28.40
2023-01-04T19:31:47.146Z,28.03
2023-01-04T19:34:15.302Z,23.55
2023-01-04T19:36:43.129Z,29.10
2023-01-04T19:39:11.170Z,24.63
2023-01-04T19:41:38.997Z,26.50
2023-01-04T19:44:10.773Z,25.03
2023-01-04T19:46:40.197Z,33.42
2023-01-04T19:49:14.480Z,31.17
2023-01-04T19:51:45.010Z,22.60
2023-01-04T19:54:18.544Z,31.98
2023-01-04T19:56:51.436Z,26.80
2023-01-04T19:59:20.560Z,35.65
2023-01-04T20:01:48.564Z,30.35
2023-01-04T20:04:16.477Z,29.33
2023-01-04T20:06:44.287Z,30.13
2023-01-04T20:09:12.201Z,24.00
2023-01-04T20:11:40.161Z,30.60
2023-01-04T20:14:07.973Z,31.20
2023-01-04T20:16:37.377Z,26.83
2023-01-04T20:19:05.220Z,34.42
2023-01-04T20:21:33.033Z,29.17
2023-01-04T20:24:01.565Z,28.02
2023-01-04T20:26:29.974Z,28.23
2023-01-04T20:28:57.863Z,30.42
2023-01-04T20:31:25.753Z,29.23
2023-01-04T20:33:56.846Z,27.10
2023-01-04T20:36:29.189Z,22.23
2023-01-04T20:38:59.533Z,25.98
2023-01-04T20:41:29.740Z,28.23
2023-01-04T20:43:57.036Z,30.02
2023-01-04T20:46:30.241Z,31.27
2023-01-04T20:49:00.035Z,26.30
2023-01-04T20:51:29.797Z,27.83
2023-01-04T20:54:00.173Z,27.20
2023-01-04T20:56:30.034Z,27.90
2023-01-04T20:58:58.355Z,36.23
2023-01-04T21:01:26.351Z,26.70
2023-01-04T21:03:54.435Z,26.77
2023-01-04T21:06:24.766Z,25.70
2023-01-04T21:08:55.054Z,27.27
2023-01-04T21:11:23.386Z,24.33
2023-01-04T21:13:52.097Z,27.20
2023-01-04T21:16:19.972Z,25.88
2023-01-04T21:18:47.813Z,27.48
2023-01-04T21:21:17.793Z,24.00
2023-01-04T21:23:56.131Z,23.30
2023-01-04T21:26:25.947Z,34.00
2023-01-04T21:28:53.909Z,30.52
2023-01-04T21:31:24.390Z,23.67
2023-01-04T21:33:53.335Z,28.38
2023-01-04T21:36:23.868Z,27.07
2023-01-04T21:38:54.413Z,27.98
2023-01-04T21:41:24.872Z,27.45
2023-01-04T21:43:53.906Z,38.53
2023-01-04T21:46:21.919Z,24.75
2023-01-04T21:48:49.874Z,32.83
2023-01-04T21:51:18.561Z,25.92
2023-01-04T21:53:46.438Z,29.42
2023-01-04T21:56:17.834Z,31.67
2023-01-04T21:58:45.944Z,24.55
2023-01-04T22:01:16.668Z,24.93
2023-01-04T22:03:44.747Z,24.35
2023-01-04T22:06:14.015Z,30.45
2023-01-04T22:08:43.431Z,26.42
2023-01-04T22:11:11.779Z,24.52
2023-01-04T22:13:41.042Z,27.70
2023-01-04T22:16:10.861Z,26.25
2023-01-04T22:18:39.032Z,27.50
2023-01-04T22:21:09.096Z,37.60
2023-01-04T22:23:36.947Z,24.15
2023-01-04T22:26:04.889Z,26.40
2023-01-04T22:28:36.726Z,26.67
2023-01-04T22:31:07.768Z,28.13
2023-01-04T22:33:36.418Z,27.55
2023-01-04T22:36:06.112Z,30.48
2023-01-04T22:38:35.254Z,31.27
2023-01-04T22:41:07.585Z,26.60
2023-01-04T22:43:35.955Z,33.45
2023-01-04T22:46:07.112Z,30.52
2023-01-04T22:48:35.562Z,27.38
2023-01-04T22:51:06.638Z,30.60
2023-01-04T22:53:34.557Z,32.42
2023-01-04T22:56:18.817Z,28.77
2023-01-04T22:58:52.405Z,30.80
2023-01-04T23:01:24.086Z,29.60
2023-01-04T23:03:52.717Z,27.20
2023-01-04T23:06:20.978Z,29.42
2023-01-04T23:08:49.647Z,33.65
2023-01-04T23:11:19.590Z,33.47
2023-01-04T23:13:47.533Z,29.73
2023-01-04T23:16:17.289Z,33.47
2023-01-04T23:18:46.795Z,40.15
2023-01-04T23:21:15.577Z,36.15
2023-01-04T23:23:44.177Z,40.65
2023-01-04T23:26:15.131Z,30.23
2023-01-04T23:28:44.000Z,27.93
2023-01-04T23:31:13.994Z,23.55
2023-01-04T23:33:41.947Z,39.85
2023-01-04T23:36:13.471Z,34.80
2023-01-04T23:38:41.860Z,32.90
2023-01-04T23:41:10.133Z,37.97
2023-01-04T23:43:39.641Z,33.13
2023-01-04T23:48:36.880Z,31.90
2023-01-04T23:51:05.282Z,33.33
2023-01-04T23:53:34.624Z,36.90
2023-01-04T23:56:05.825Z,36.00
2023-01-04T23:58:34.421Z,31.00
